sensor_id;sensor_type;location;lat;lon;timestamp;P1;durP1;ratioP1;P2;durP2;ratioP2
52668;SDS011;74205;52.786;6.892;2023-11-21T00:01:48;39.67;;;23.00;;
52668;SDS011;74205;52.786;6.892;2023-11-21T00:05:09;33.60;;;19.67;;
52668;SDS011;74205;52.786;6.892;2023-11-21T00:08:31;44.83;;;22.33;;
52668;SDS011;74205;52.786;6.892;2023-11-21T00:11:52;34.70;;;19.02;;
52668;SDS011;74205;52.786;6.892;2023-11-21T00:15:12;43.00;;;22.23;;
52668;SDS011;74205;52.786;6.892;2023-11-21T00:18:33;44.38;;;24.25;;
52668;SDS011;74205;52.786;6.892;2023-11-21T00:21:53;41.92;;;24.73;;
52668;SDS011;74205;52.786;6.892;2023-11-21T00:25:14;45.25;;;23.35;;
52668;SDS011;74205;52.786;6.892;2023-11-21T00:28:35;41.42;;;26.02;;
52668;SDS011;74205;52.786;6.892;2023-11-21T00:31:56;35.17;;;20.20;;
52668;SDS011;74205;52.786;6.892;2023-11-21T00:35:16;31.75;;;18.70;;
52668;SDS011;74205;52.786;6.892;2023-11-21T00:38:37;34.28;;;21.00;;
52668;SDS011;74205;52.786;6.892;2023-11-21T00:41:59;36.20;;;21.83;;
52668;SDS011;74205;52.786;6.892;2023-11-21T00:45:20;33.25;;;19.13;;
52668;SDS011;74205;52.786;6.892;2023-11-21T00:48:41;39.45;;;20.25;;
52668;SDS011;74205;52.786;6.892;2023-11-21T00:52:01;28.50;;;18.15;;
52668;SDS011;74205;52.786;6.892;2023-11-21T00:55:22;35.55;;;20.35;;
52668;SDS011;74205;52.786;6.892;2023-11-21T00:58:43;34.58;;;20.75;;
52668;SDS011;74205;52.786;6.892;2023-11-21T01:05:30;34.42;;;21.50;;
52668;SDS011;74205;52.786;6.892;2023-11-21T01:08:50;35.78;;;21.20;;
52668;SDS011;74205;52.786;6.892;2023-11-21T01:12:11;35.17;;;21.13;;
52668;SDS011;74205;52.786;6.892;2023-11-21T01:15:31;30.30;;;18.25;;
52668;SDS011;74205;52.786;6.892;2023-11-21T01:18:52;36.90;;;20.90;;
52668;SDS011;74205;52.786;6.892;2023-11-21T01:22:13;33.90;;;18.13;;
52668;SDS011;74205;52.786;6.892;2023-11-21T01:25:33;35.55;;;20.48;;
52668;SDS011;74205;52.786;6.892;2023-11-21T01:28:54;30.23;;;18.92;;
52668;SDS011;74205;52.786;6.892;2023-11-21T01:32:14;29.35;;;18.15;;
52668;SDS011;74205;52.786;6.892;2023-11-21T01:35:35;33.40;;;19.13;;
52668;SDS011;74205;52.786;6.892;2023-11-21T01:38:55;34.88;;;19.08;;
52668;SDS011;74205;52.786;6.892;2023-11-21T01:42:19;37.75;;;19.83;;
52668;SDS011;74205;52.786;6.892;2023-11-21T01:45:39;37.08;;;18.35;;
52668;SDS011;74205;52.786;6.892;2023-11-21T01:49:00;40.83;;;20.95;;
52668;SDS011;74205;52.786;6.892;2023-11-21T01:52:21;33.38;;;19.50;;
52668;SDS011;74205;52.786;6.892;2023-11-21T01:55:42;32.83;;;19.20;;
52668;SDS011;74205;52.786;6.892;2023-11-21T01:59:03;36.97;;;19.92;;
52668;SDS011;74205;52.786;6.892;2023-11-21T02:02:24;34.35;;;18.98;;
52668;SDS011;74205;52.786;6.892;2023-11-21T02:05:45;37.63;;;19.65;;
52668;SDS011;74205;52.786;6.892;2023-11-21T02:09:05;36.28;;;19.33;;
52668;SDS011;74205;52.786;6.892;2023-11-21T02:12:26;38.58;;;20.90;;
52668;SDS011;74205;52.786;6.892;2023-11-21T02:15:46;39.05;;;19.60;;
52668;SDS011;74205;52.786;6.892;2023-11-21T02:19:09;34.42;;;20.83;;
52668;SDS011;74205;52.786;6.892;2023-11-21T02:25:57;34.72;;;20.02;;
52668;SDS011;74205;52.786;6.892;2023-11-21T02:29:17;28.02;;;17.50;;
52668;SDS011;74205;52.786;6.892;2023-11-21T02:32:41;34.58;;;19.58;;
52668;SDS011;74205;52.786;6.892;2023-11-21T02:36:03;38.03;;;22.73;;
52668;SDS011;74205;52.786;6.892;2023-11-21T02:39:24;36.75;;;21.67;;
52668;SDS011;74205;52.786;6.892;2023-11-21T02:42:48;34.13;;;19.33;;
52668;SDS011;74205;52.786;6.892;2023-11-21T02:46:12;32.50;;;19.23;;
52668;SDS011;74205;52.786;6.892;2023-11-21T02:49:33;34.63;;;19.67;;
52668;SDS011;74205;52.786;6.892;2023-11-21T02:52:54;29.58;;;18.92;;
52668;SDS011;74205;52.786;6.892;2023-11-21T02:56:17;32.95;;;18.60;;
52668;SDS011;74205;52.786;6.892;2023-11-21T02:59:38;34.10;;;18.45;;
52668;SDS011;74205;52.786;6.892;2023-11-21T03:02:58;31.45;;;18.35;;
52668;SDS011;74205;52.786;6.892;2023-11-21T03:06:19;33.33;;;18.73;;
52668;SDS011;74205;52.786;6.892;2023-11-21T03:09:40;33.08;;;18.48;;
52668;SDS011;74205;52.786;6.892;2023-11-21T03:13:00;32.90;;;18.58;;
52668;SDS011;74205;52.786;6.892;2023-11-21T03:16:21;31.17;;;17.63;;
52668;SDS011;74205;52.786;6.892;2023-11-21T03:19:41;37.17;;;20.05;;
52668;SDS011;74205;52.786;6.892;2023-11-21T03:23:02;30.02;;;17.63;;
52668;SDS011;74205;52.786;6.892;2023-11-21T03:26:23;32.13;;;18.10;;
52668;SDS011;74205;52.786;6.892;2023-11-21T03:29:44;31.25;;;18.08;;
52668;SDS011;74205;52.786;6.892;2023-11-21T03:33:06;33.38;;;18.15;;
52668;SDS011;74205;52.786;6.892;2023-11-21T03:36:27;32.83;;;20.02;;
52668;SDS011;74205;52.786;6.892;2023-11-21T03:39:48;26.65;;;18.85;;
52668;SDS011;74205;52.786;6.892;2023-11-21T03:43:09;35.97;;;20.17;;
52668;SDS011;74205;52.786;6.892;2023-11-21T03:46:29;38.58;;;19.92;;
52668;SDS011;74205;52.786;6.892;2023-11-21T03:49:50;35.63;;;17.58;;
52668;SDS011;74205;52.786;6.892;2023-11-21T03:53:10;39.50;;;19.90;;
52668;SDS011;74205;52.786;6.892;2023-11-21T03:56:31;40.63;;;19.08;;
52668;SDS011;74205;52.786;6.892;2023-11-21T03:59:51;32.70;;;18.73;;
52668;SDS011;74205;52.786;6.892;2023-11-21T04:03:12;30.58;;;18.38;;
52668;SDS011;74205;52.786;6.892;2023-11-21T04:06:33;35.33;;;18.95;;
52668;SDS011;74205;52.786;6.892;2023-11-21T04:09:55;35.78;;;18.20;;
52668;SDS011;74205;52.786;6.892;2023-11-21T04:13:15;40.85;;;22.45;;
52668;SDS011;74205;52.786;6.892;2023-11-21T04:16:36;30.92;;;19.52;;
52668;SDS011;74205;52.786;6.892;2023-11-21T04:19:56;38.78;;;20.63;;
52668;SDS011;74205;52.786;6.892;2023-11-21T04:23:17;33.05;;;18.60;;
52668;SDS011;74205;52.786;6.892;2023-11-21T04:26:38;43.13;;;19.45;;
52668;SDS011;74205;52.786;6.892;2023-11-21T04:29:58;34.15;;;20.33;;
52668;SDS011;74205;52.786;6.892;2023-11-21T04:33:19;38.50;;;19.92;;
52668;SDS011;74205;52.786;6.892;2023-11-21T04:36:40;29.63;;;18.67;;
52668;SDS011;74205;52.786;6.892;2023-11-21T04:40:00;30.23;;;18.08;;
52668;SDS011;74205;52.786;6.892;2023-11-21T04:43:21;37.88;;;21.17;;
52668;SDS011;74205;52.786;6.892;2023-11-21T04:46:41;34.08;;;22.45;;
52668;SDS011;74205;52.786;6.892;2023-11-21T04:50:02;41.72;;;22.48;;
52668;SDS011;74205;52.786;6.892;2023-11-21T04:53:24;38.38;;;22.35;;
52668;SDS011;74205;52.786;6.892;2023-11-21T04:56:44;32.55;;;20.55;;
52668;SDS011;74205;52.786;6.892;2023-11-21T05:00:05;35.80;;;20.33;;
52668;SDS011;74205;52.786;6.892;2023-11-21T05:03:26;37.17;;;21.65;;
52668;SDS011;74205;52.786;6.892;2023-11-21T05:06:49;33.83;;;21.55;;
52668;SDS011;74205;52.786;6.892;2023-11-21T05:10:10;41.95;;;20.98;;
52668;SDS011;74205;52.786;6.892;2023-11-21T05:13:31;38.63;;;21.85;;
52668;SDS011;74205;52.786;6.892;2023-11-21T05:16:53;37.60;;;19.80;;
52668;SDS011;74205;52.786;6.892;2023-11-21T05:20:14;40.38;;;20.23;;
52668;SDS011;74205;52.786;6.892;2023-11-21T05:23:37;35.90;;;21.95;;
52668;SDS011;74205;52.786;6.892;2023-11-21T05:26:58;38.63;;;22.15;;
52668;SDS011;74205;52.786;6.892;2023-11-21T05:30:19;38.50;;;21.92;;
52668;SDS011;74205;52.786;6.892;2023-11-21T05:33:40;35.83;;;22.00;;
52668;SDS011;74205;52.786;6.892;2023-11-21T05:37:00;37.63;;;20.95;;
52668;SDS011;74205;52.786;6.892;2023-11-21T05:40:21;34.30;;;20.50;;
52668;SDS011;74205;52.786;6.892;2023-11-21T05:43:42;37.50;;;20.58;;
52668;SDS011;74205;52.786;6.892;2023-11-21T05:47:03;61.83;;;21.05;;
52668;SDS011;74205;52.786;6.892;2023-11-21T05:50:23;31.92;;;19.65;;
52668;SDS011;74205;52.786;6.892;2023-11-21T05:53:44;31.85;;;20.60;;
52668;SDS011;74205;52.786;6.892;2023-11-21T05:57:04;32.65;;;18.42;;
52668;SDS011;74205;52.786;6.892;2023-11-21T06:00:25;29.25;;;18.60;;
52668;SDS011;74205;52.786;6.892;2023-11-21T06:03:47;30.85;;;19.30;;
52668;SDS011;74205;52.786;6.892;2023-11-21T06:07:08;32.40;;;19.23;;
52668;SDS011;74205;52.786;6.892;2023-11-21T06:10:30;37.63;;;20.40;;
52668;SDS011;74205;52.786;6.892;2023-11-21T06:13:50;27.58;;;19.00;;
52668;SDS011;74205;52.786;6.892;2023-11-21T06:17:13;30.77;;;19.92;;
52668;SDS011;74205;52.786;6.892;2023-11-21T06:20:34;34.92;;;19.27;;
52668;SDS011;74205;52.786;6.892;2023-11-21T06:27:17;37.03;;;21.33;;
52668;SDS011;74205;52.786;6.892;2023-11-21T06:30:38;36.75;;;21.38;;
52668;SDS011;74205;52.786;6.892;2023-11-21T06:33:58;31.17;;;19.63;;
52668;SDS011;74205;52.786;6.892;2023-11-21T06:37:20;36.00;;;21.67;;
52668;SDS011;74205;52.786;6.892;2023-11-21T06:40:43;30.08;;;20.70;;
52668;SDS011;74205;52.786;6.892;2023-11-21T06:44:05;32.70;;;22.98;;
52668;SDS011;74205;52.786;6.892;2023-11-21T06:47:26;39.75;;;24.48;;
52668;SDS011;74205;52.786;6.892;2023-11-21T06:50:47;34.72;;;22.73;;
52668;SDS011;74205;52.786;6.892;2023-11-21T06:54:08;38.95;;;23.13;;
52668;SDS011;74205;52.786;6.892;2023-11-21T06:57:29;38.85;;;22.95;;
52668;SDS011;74205;52.786;6.892;2023-11-21T07:00:49;40.47;;;25.13;;
52668;SDS011;74205;52.786;6.892;2023-11-21T07:04:10;38.47;;;22.90;;
52668;SDS011;74205;52.786;6.892;2023-11-21T07:07:30;37.28;;;23.02;;
52668;SDS011;74205;52.786;6.892;2023-11-21T07:10:51;37.22;;;23.85;;
52668;SDS011;74205;52.786;6.892;2023-11-21T07:14:12;38.53;;;23.45;;
52668;SDS011;74205;52.786;6.892;2023-11-21T07:17:33;44.83;;;24.33;;
52668;SDS011;74205;52.786;6.892;2023-11-21T07:20:55;43.22;;;24.55;;
52668;SDS011;74205;52.786;6.892;2023-11-21T07:24:15;41.72;;;25.60;;
52668;SDS011;74205;52.786;6.892;2023-11-21T07:27:36;35.00;;;23.33;;
52668;SDS011;74205;52.786;6.892;2023-11-21T07:30:57;36.80;;;25.63;;
52668;SDS011;74205;52.786;6.892;2023-11-21T07:34:20;32.67;;;21.67;;
52668;SDS011;74205;52.786;6.892;2023-11-21T07:37:41;34.03;;;21.25;;
52668;SDS011;74205;52.786;6.892;2023-11-21T07:41:01;30.30;;;19.27;;
52668;SDS011;74205;52.786;6.892;2023-11-21T07:44:22;37.25;;;20.60;;
52668;SDS011;74205;52.786;6.892;2023-11-21T07:47:43;31.52;;;20.58;;
52668;SDS011;74205;52.786;6.892;2023-11-21T07:51:04;27.90;;;21.05;;
52668;SDS011;74205;52.786;6.892;2023-11-21T07:54:24;28.92;;;20.08;;
52668;SDS011;74205;52.786;6.892;2023-11-21T07:57:45;27.80;;;19.67;;
52668;SDS011;74205;52.786;6.892;2023-11-21T08:01:05;29.27;;;19.58;;
52668;SDS011;74205;52.786;6.892;2023-11-21T08:04:27;29.70;;;20.42;;
52668;SDS011;74205;52.786;6.892;2023-11-21T08:07:48;37.65;;;21.63;;
52668;SDS011;74205;52.786;6.892;2023-11-21T08:11:09;30.08;;;18.67;;
52668;SDS011;74205;52.786;6.892;2023-11-21T08:14:30;40.83;;;22.25;;
52668;SDS011;74205;52.786;6.892;2023-11-21T08:17:51;27.52;;;20.27;;
52668;SDS011;74205;52.786;6.892;2023-11-21T08:21:12;28.98;;;19.17;;
52668;SDS011;74205;52.786;6.892;2023-11-21T08:24:33;31.50;;;18.25;;
52668;SDS011;74205;52.786;6.892;2023-11-21T08:27:53;30.02;;;19.05;;
52668;SDS011;74205;52.786;6.892;2023-11-21T08:31:14;33.67;;;19.60;;
52668;SDS011;74205;52.786;6.892;2023-11-21T08:34:35;32.20;;;17.40;;
52668;SDS011;74205;52.786;6.892;2023-11-21T08:37:56;26.27;;;16.33;;
52668;SDS011;74205;52.786;6.892;2023-11-21T08:41:17;24.15;;;15.80;;
52668;SDS011;74205;52.786;6.892;2023-11-21T08:44:37;24.73;;;16.00;;
52668;SDS011;74205;52.786;6.892;2023-11-21T08:47:58;27.05;;;16.58;;
52668;SDS011;74205;52.786;6.892;2023-11-21T08:51:19;21.83;;;15.10;;
52668;SDS011;74205;52.786;6.892;2023-11-21T08:54:40;31.10;;;20.58;;
52668;SDS011;74205;52.786;6.892;2023-11-21T08:58:01;31.42;;;18.67;;
52668;SDS011;74205;52.786;6.892;2023-11-21T09:01:22;37.40;;;19.17;;
52668;SDS011;74205;52.786;6.892;2023-11-21T09:04:43;31.88;;;19.33;;
52668;SDS011;74205;52.786;6.892;2023-11-21T09:08:04;39.35;;;22.08;;
52668;SDS011;74205;52.786;6.892;2023-11-21T09:11:24;37.55;;;23.35;;
52668;SDS011;74205;52.786;6.892;2023-11-21T09:14:47;39.28;;;23.27;;
52668;SDS011;74205;52.786;6.892;2023-11-21T09:18:07;39.35;;;23.92;;
52668;SDS011;74205;52.786;6.892;2023-11-21T09:21:28;38.78;;;24.05;;
52668;SDS011;74205;52.786;6.892;2023-11-21T09:24:48;34.35;;;21.25;;
52668;SDS011;74205;52.786;6.892;2023-11-21T09:28:09;30.30;;;20.67;;
52668;SDS011;74205;52.786;6.892;2023-11-21T09:31:30;35.80;;;19.48;;
52668;SDS011;74205;52.786;6.892;2023-11-21T09:34:51;29.23;;;19.25;;
52668;SDS011;74205;52.786;6.892;2023-11-21T09:38:12;32.30;;;20.70;;
52668;SDS011;74205;52.786;6.892;2023-11-21T09:41:34;29.48;;;20.33;;
52668;SDS011;74205;52.786;6.892;2023-11-21T09:45:24;28.13;;;19.15;;
52668;SDS011;74205;52.786;6.892;2023-11-21T09:48:50;29.77;;;20.38;;
52668;SDS011;74205;52.786;6.892;2023-11-21T09:52:22;27.77;;;19.42;;
52668;SDS011;74205;52.786;6.892;2023-11-21T09:55:47;30.13;;;21.70;;
52668;SDS011;74205;52.786;6.892;2023-11-21T09:59:12;27.95;;;17.85;;
52668;SDS011;74205;52.786;6.892;2023-11-21T10:02:35;28.67;;;20.10;;
52668;SDS011;74205;52.786;6.892;2023-11-21T10:05:58;25.60;;;19.85;;
52668;SDS011;74205;52.786;6.892;2023-11-21T10:09:20;27.73;;;19.58;;
52668;SDS011;74205;52.786;6.892;2023-11-21T10:12:42;30.77;;;20.75;;
52668;SDS011;74205;52.786;6.892;2023-11-21T10:16:08;30.92;;;20.25;;
52668;SDS011;74205;52.786;6.892;2023-11-21T10:19:33;29.38;;;19.55;;
52668;SDS011;74205;52.786;6.892;2023-11-21T10:22:56;27.58;;;19.00;;
52668;SDS011;74205;52.786;6.892;2023-11-21T10:26:16;25.60;;;18.20;;
52668;SDS011;74205;52.786;6.892;2023-11-21T10:29:40;29.77;;;18.08;;
52668;SDS011;74205;52.786;6.892;2023-11-21T10:33:02;26.83;;;16.35;;
52668;SDS011;74205;52.786;6.892;2023-11-21T10:36:26;17.52;;;13.57;;
52668;SDS011;74205;52.786;6.892;2023-11-21T10:39:48;17.40;;;13.93;;
52668;SDS011;74205;52.786;6.892;2023-11-21T10:43:09;14.60;;;11.45;;
52668;SDS011;74205;52.786;6.892;2023-11-21T10:46:30;15.55;;;10.95;;
52668;SDS011;74205;52.786;6.892;2023-11-21T10:49:51;16.17;;;9.93;;
52668;SDS011;74205;52.786;6.892;2023-11-21T10:53:13;16.23;;;10.87;;
52668;SDS011;74205;52.786;6.892;2023-11-21T10:56:33;11.20;;;8.55;;
52668;SDS011;74205;52.786;6.892;2023-11-21T11:00:00;13.45;;;9.10;;
52668;SDS011;74205;52.786;6.892;2023-11-21T11:03:23;10.60;;;8.45;;
52668;SDS011;74205;52.786;6.892;2023-11-21T11:06:44;12.50;;;8.88;;
52668;SDS011;74205;52.786;6.892;2023-11-21T11:10:11;11.77;;;9.10;;
52668;SDS011;74205;52.786;6.892;2023-11-21T11:13:34;10.88;;;8.23;;
52668;SDS011;74205;52.786;6.892;2023-11-21T11:16:56;9.82;;;7.75;;
52668;SDS011;74205;52.786;6.892;2023-11-21T11:20:19;10.88;;;8.57;;
52668;SDS011;74205;52.786;6.892;2023-11-21T11:23:46;108.65;;;92.22;;
52668;SDS011;74205;52.786;6.892;2023-11-21T11:35:10;12.35;;;8.45;;
52668;SDS011;74205;52.786;6.892;2023-11-21T11:38:46;10.85;;;8.07;;
52668;SDS011;74205;52.786;6.892;2023-11-21T11:42:13;38.55;;;17.17;;
52668;SDS011;74205;52.786;6.892;2023-11-21T11:45:35;10.90;;;7.72;;
52668;SDS011;74205;52.786;6.892;2023-11-21T11:49:03;10.40;;;7.85;;
52668;SDS011;74205;52.786;6.892;2023-11-21T11:52:40;11.38;;;8.07;;
52668;SDS011;74205;52.786;6.892;2023-11-21T12:03:25;12.88;;;8.90;;
52668;SDS011;74205;52.786;6.892;2023-11-21T12:06:46;8.80;;;7.75;;
52668;SDS011;74205;52.786;6.892;2023-11-21T12:10:07;10.43;;;8.40;;
52668;SDS011;74205;52.786;6.892;2023-11-21T12:13:27;14.75;;;10.32;;
52668;SDS011;74205;52.786;6.892;2023-11-21T12:16:48;11.00;;;9.50;;
52668;SDS011;74205;52.786;6.892;2023-11-21T12:20:09;10.18;;;8.02;;
52668;SDS011;74205;52.786;6.892;2023-11-21T12:23:34;9.02;;;7.85;;
52668;SDS011;74205;52.786;6.892;2023-11-21T12:26:55;12.63;;;8.15;;
52668;SDS011;74205;52.786;6.892;2023-11-21T12:30:16;10.32;;;8.18;;
52668;SDS011;74205;52.786;6.892;2023-11-21T12:33:37;9.83;;;8.03;;
52668;SDS011;74205;52.786;6.892;2023-11-21T12:36:58;13.07;;;8.35;;
52668;SDS011;74205;52.786;6.892;2023-11-21T12:40:20;12.45;;;8.98;;
52668;SDS011;74205;52.786;6.892;2023-11-21T12:43:43;10.90;;;8.18;;
52668;SDS011;74205;52.786;6.892;2023-11-21T12:47:03;10.70;;;7.65;;
52668;SDS011;74205;52.786;6.892;2023-11-21T12:50:26;10.15;;;7.72;;
52668;SDS011;74205;52.786;6.892;2023-11-21T12:53:53;10.43;;;8.57;;
52668;SDS011;74205;52.786;6.892;2023-11-21T12:57:15;11.85;;;8.63;;
52668;SDS011;74205;52.786;6.892;2023-11-21T13:00:39;12.50;;;8.75;;
52668;SDS011;74205;52.786;6.892;2023-11-21T13:04:02;10.10;;;7.20;;
52668;SDS011;74205;52.786;6.892;2023-11-21T13:07:24;10.10;;;8.02;;
52668;SDS011;74205;52.786;6.892;2023-11-21T13:10:46;9.88;;;8.63;;
52668;SDS011;74205;52.786;6.892;2023-11-21T13:14:10;9.20;;;6.80;;
52668;SDS011;74205;52.786;6.892;2023-11-21T13:17:31;10.18;;;8.48;;
52668;SDS011;74205;52.786;6.892;2023-11-21T13:20:52;8.85;;;7.47;;
52668;SDS011;74205;52.786;6.892;2023-11-21T13:24:14;11.25;;;8.38;;
52668;SDS011;74205;52.786;6.892;2023-11-21T13:27:36;10.57;;;7.78;;
52668;SDS011;74205;52.786;6.892;2023-11-21T13:30:57;11.73;;;8.27;;
52668;SDS011;74205;52.786;6.892;2023-11-21T13:34:22;10.15;;;8.52;;
52668;SDS011;74205;52.786;6.892;2023-11-21T13:37:48;9.32;;;7.78;;
52668;SDS011;74205;52.786;6.892;2023-11-21T13:41:15;11.18;;;8.43;;
52668;SDS011;74205;52.786;6.892;2023-11-21T13:44:37;8.93;;;7.40;;
52668;SDS011;74205;52.786;6.892;2023-11-21T13:48:04;11.70;;;9.13;;
52668;SDS011;74205;52.786;6.892;2023-11-21T13:51:27;12.05;;;9.05;;
52668;SDS011;74205;52.786;6.892;2023-11-21T13:54:59;10.52;;;8.00;;
52668;SDS011;74205;52.786;6.892;2023-11-21T13:58:25;11.32;;;8.73;;
52668;SDS011;74205;52.786;6.892;2023-11-21T14:02:15;10.90;;;8.43;;
52668;SDS011;74205;52.786;6.892;2023-11-21T14:05:40;12.07;;;7.82;;
52668;SDS011;74205;52.786;6.892;2023-11-21T14:09:03;24.45;;;8.40;;
52668;SDS011;74205;52.786;6.892;2023-11-21T14:12:26;13.18;;;7.97;;
52668;SDS011;74205;52.786;6.892;2023-11-21T14:15:48;12.50;;;8.80;;
52668;SDS011;74205;52.786;6.892;2023-11-21T14:19:12;14.35;;;8.15;;
52668;SDS011;74205;52.786;6.892;2023-11-21T14:22:35;13.32;;;8.90;;
52668;SDS011;74205;52.786;6.892;2023-11-21T14:25:56;12.27;;;8.85;;
52668;SDS011;74205;52.786;6.892;2023-11-21T14:29:18;10.70;;;8.40;;
52668;SDS011;74205;52.786;6.892;2023-11-21T14:32:43;13.63;;;9.10;;
52668;SDS011;74205;52.786;6.892;2023-11-21T14:36:04;11.65;;;8.55;;
52668;SDS011;74205;52.786;6.892;2023-11-21T14:39:25;12.35;;;9.63;;
52668;SDS011;74205;52.786;6.892;2023-11-21T14:42:48;11.25;;;8.73;;
52668;SDS011;74205;52.786;6.892;2023-11-21T14:46:09;13.65;;;9.07;;
52668;SDS011;74205;52.786;6.892;2023-11-21T14:49:34;9.82;;;8.55;;
52668;SDS011;74205;52.786;6.892;2023-11-21T14:53:11;16.23;;;8.52;;
52668;SDS011;74205;52.786;6.892;2023-11-21T14:56:33;16.65;;;10.25;;
52668;SDS011;74205;52.786;6.892;2023-11-21T14:59:54;10.60;;;8.15;;
52668;SDS011;74205;52.786;6.892;2023-11-21T15:03:18;11.90;;;9.48;;
52668;SDS011;74205;52.786;6.892;2023-11-21T15:06:53;12.43;;;8.18;;
52668;SDS011;74205;52.786;6.892;2023-11-21T15:10:17;9.52;;;7.70;;
52668;SDS011;74205;52.786;6.892;2023-11-21T15:13:41;12.30;;;7.90;;
52668;SDS011;74205;52.786;6.892;2023-11-21T15:17:01;8.98;;;7.63;;
52668;SDS011;74205;52.786;6.892;2023-11-21T15:20:23;7.95;;;7.15;;
52668;SDS011;74205;52.786;6.892;2023-11-21T15:23:46;9.63;;;6.65;;
52668;SDS011;74205;52.786;6.892;2023-11-21T15:27:06;9.68;;;7.38;;
52668;SDS011;74205;52.786;6.892;2023-11-21T15:30:27;10.95;;;7.70;;
52668;SDS011;74205;52.786;6.892;2023-11-21T15:33:51;7.50;;;6.68;;
52668;SDS011;74205;52.786;6.892;2023-11-21T15:37:19;9.48;;;6.70;;
52668;SDS011;74205;52.786;6.892;2023-11-21T15:40:40;12.75;;;8.55;;
52668;SDS011;74205;52.786;6.892;2023-11-21T15:44:01;14.82;;;10.93;;
52668;SDS011;74205;52.786;6.892;2023-11-21T15:47:24;9.17;;;7.97;;
52668;SDS011;74205;52.786;6.892;2023-11-21T15:50:44;10.25;;;8.60;;
52668;SDS011;74205;52.786;6.892;2023-11-21T15:54:06;12.38;;;9.50;;
52668;SDS011;74205;52.786;6.892;2023-11-21T15:57:27;14.00;;;8.95;;
52668;SDS011;74205;52.786;6.892;2023-11-21T16:00:51;11.27;;;9.18;;
52668;SDS011;74205;52.786;6.892;2023-11-21T16:04:12;13.35;;;10.13;;
52668;SDS011;74205;52.786;6.892;2023-11-21T16:07:36;10.40;;;8.65;;
52668;SDS011;74205;52.786;6.892;2023-11-21T16:10:59;11.23;;;8.40;;
52668;SDS011;74205;52.786;6.892;2023-11-21T16:14:20;11.50;;;8.45;;
52668;SDS011;74205;52.786;6.892;2023-11-21T16:17:44;10.63;;;8.93;;
52668;SDS011;74205;52.786;6.892;2023-11-21T16:21:04;12.02;;;8.13;;
52668;SDS011;74205;52.786;6.892;2023-11-21T16:24:25;11.13;;;7.78;;
52668;SDS011;74205;52.786;6.892;2023-11-21T16:27:50;9.23;;;7.38;;
52668;SDS011;74205;52.786;6.892;2023-11-21T16:31:11;11.45;;;8.60;;
52668;SDS011;74205;52.786;6.892;2023-11-21T16:34:31;11.15;;;7.97;;
52668;SDS011;74205;52.786;6.892;2023-11-21T16:37:52;9.95;;;7.72;;
52668;SDS011;74205;52.786;6.892;2023-11-21T16:41:13;13.90;;;8.88;;
52668;SDS011;74205;52.786;6.892;2023-11-21T16:44:34;11.52;;;8.07;;
52668;SDS011;74205;52.786;6.892;2023-11-21T16:47:55;14.93;;;9.40;;
52668;SDS011;74205;52.786;6.892;2023-11-21T16:51:18;17.88;;;11.10;;
52668;SDS011;74205;52.786;6.892;2023-11-21T16:54:39;11.90;;;9.80;;
52668;SDS011;74205;52.786;6.892;2023-11-21T16:58:00;10.00;;;8.98;;
52668;SDS011;74205;52.786;6.892;2023-11-21T17:01:20;11.73;;;8.77;;
52668;SDS011;74205;52.786;6.892;2023-11-21T17:04:41;10.95;;;9.73;;
52668;SDS011;74205;52.786;6.892;2023-11-21T17:08:03;16.08;;;11.10;;
52668;SDS011;74205;52.786;6.892;2023-11-21T17:11:24;10.95;;;9.77;;
52668;SDS011;74205;52.786;6.892;2023-11-21T17:14:46;9.55;;;8.65;;
52668;SDS011;74205;52.786;6.892;2023-11-21T17:18:09;11.02;;;9.88;;
52668;SDS011;74205;52.786;6.892;2023-11-21T17:21:29;11.75;;;10.55;;
52668;SDS011;74205;52.786;6.892;2023-11-21T17:24:51;13.15;;;10.10;;
52668;SDS011;74205;52.786;6.892;2023-11-21T17:28:12;11.90;;;9.43;;
52668;SDS011;74205;52.786;6.892;2023-11-21T17:31:34;12.20;;;10.50;;
52668;SDS011;74205;52.786;6.892;2023-11-21T17:34:54;15.40;;;13.88;;
52668;SDS011;74205;52.786;6.892;2023-11-21T17:38:15;22.60;;;19.50;;
52668;SDS011;74205;52.786;6.892;2023-11-21T17:41:37;14.80;;;11.45;;
52668;SDS011;74205;52.786;6.892;2023-11-21T17:44:58;10.98;;;9.98;;
52668;SDS011;74205;52.786;6.892;2023-11-21T17:48:19;12.80;;;11.50;;
52668;SDS011;74205;52.786;6.892;2023-11-21T17:51:41;13.70;;;11.48;;
52668;SDS011;74205;52.786;6.892;2023-11-21T17:55:01;14.63;;;11.73;;
52668;SDS011;74205;52.786;6.892;2023-11-21T17:58:22;13.90;;;11.82;;
52668;SDS011;74205;52.786;6.892;2023-11-21T18:01:43;13.30;;;10.02;;
52668;SDS011;74205;52.786;6.892;2023-11-21T18:05:03;17.65;;;12.25;;
52668;SDS011;74205;52.786;6.892;2023-11-21T18:08:30;12.50;;;11.20;;
52668;SDS011;74205;52.786;6.892;2023-11-21T18:11:51;15.13;;;12.63;;
52668;SDS011;74205;52.786;6.892;2023-11-21T18:15:11;16.83;;;13.18;;
52668;SDS011;74205;52.786;6.892;2023-11-21T18:18:34;11.77;;;10.53;;
52668;SDS011;74205;52.786;6.892;2023-11-21T18:21:55;13.43;;;10.95;;
52668;SDS011;74205;52.786;6.892;2023-11-21T18:25:15;15.48;;;11.40;;
52668;SDS011;74205;52.786;6.892;2023-11-21T18:28:37;13.50;;;12.00;;
52668;SDS011;74205;52.786;6.892;2023-11-21T18:31:59;13.57;;;11.98;;
52668;SDS011;74205;52.786;6.892;2023-11-21T18:35:20;12.20;;;10.95;;
52668;SDS011;74205;52.786;6.892;2023-11-21T18:38:42;14.63;;;11.80;;
52668;SDS011;74205;52.786;6.892;2023-11-21T18:42:03;13.48;;;12.07;;
52668;SDS011;74205;52.786;6.892;2023-11-21T18:45:24;13.18;;;11.88;;
52668;SDS011;74205;52.786;6.892;2023-11-21T18:48:44;14.93;;;13.25;;
52668;SDS011;74205;52.786;6.892;2023-11-21T18:52:07;13.55;;;11.18;;
52668;SDS011;74205;52.786;6.892;2023-11-21T18:55:28;15.73;;;13.73;;
52668;SDS011;74205;52.786;6.892;2023-11-21T18:58:49;13.98;;;12.50;;
52668;SDS011;74205;52.786;6.892;2023-11-21T19:02:10;12.63;;;10.43;;
52668;SDS011;74205;52.786;6.892;2023-11-21T19:05:35;12.15;;;9.93;;
52668;SDS011;74205;52.786;6.892;2023-11-21T19:08:55;12.68;;;10.63;;
52668;SDS011;74205;52.786;6.892;2023-11-21T19:12:16;11.88;;;10.68;;
52668;SDS011;74205;52.786;6.892;2023-11-21T19:15:37;12.50;;;11.25;;
52668;SDS011;74205;52.786;6.892;2023-11-21T19:18:58;13.57;;;10.90;;
52668;SDS011;74205;52.786;6.892;2023-11-21T19:22:19;14.48;;;11.00;;
52668;SDS011;74205;52.786;6.892;2023-11-21T19:25:39;13.25;;;11.07;;
52668;SDS011;74205;52.786;6.892;2023-11-21T19:29:00;15.32;;;12.25;;
52668;SDS011;74205;52.786;6.892;2023-11-21T19:32:21;13.52;;;12.00;;
52668;SDS011;74205;52.786;6.892;2023-11-21T19:35:42;12.73;;;11.32;;
52668;SDS011;74205;52.786;6.892;2023-11-21T19:39:05;14.90;;;12.32;;
52668;SDS011;74205;52.786;6.892;2023-11-21T19:42:25;14.73;;;12.32;;
52668;SDS011;74205;52.786;6.892;2023-11-21T19:45:46;14.73;;;11.38;;
52668;SDS011;74205;52.786;6.892;2023-11-21T19:49:07;14.15;;;12.63;;
52668;SDS011;74205;52.786;6.892;2023-11-21T19:52:28;15.23;;;12.75;;
52668;SDS011;74205;52.786;6.892;2023-11-21T19:55:49;83.38;;;68.60;;
52668;SDS011;74205;52.786;6.892;2023-11-21T19:59:10;16.13;;;14.38;;
52668;SDS011;74205;52.786;6.892;2023-11-21T20:02:30;15.70;;;14.00;;
52668;SDS011;74205;52.786;6.892;2023-11-21T20:05:51;17.48;;;13.45;;
52668;SDS011;74205;52.786;6.892;2023-11-21T20:09:11;20.25;;;13.40;;
52668;SDS011;74205;52.786;6.892;2023-11-21T20:12:32;16.13;;;14.48;;